NCAR-RAP Real-Time Weather Data

Output produced by METARs form (14 October 2019  22:33 UTC)
found at http://weather.rap.ucar.edu/surface/
 
KILM 142153Z 18006KT 10SM BKN041 OVC060 26/19 A3001 RMK AO2 SLP163 T02560189
KILM 142053Z 19005KT 10SM SCT060 27/19 A3001 RMK AO2 SLP161 T02670189 55004
KILM 141953Z 21005KT 10SM SCT032 OVC042 27/17 A3001 RMK AO2 SLP160 T02720172
KILM 141853Z 20005KT 10SM SCT043 27/17 A3001 RMK AO2 SLP160 T02720167
KILM 141753Z 28006KT 10SM BKN036 27/17 A3002 RMK AO2 SLP165 T02720172 10278 20211 56020
KILM 141653Z 23007KT 10SM FEW028 27/17 A3004 RMK AO2 SLP171 T02720172
KILM 141553Z 30008KT 10SM SCT026 26/18 A3006 RMK AO2 SLP178 T02560183
KILM 141537Z VRB04KT 10SM FEW020 SCT028 SCT036 26/18 A3006 RMK AO2 T02560183
KILM 141453Z 28005KT 10SM SCT019 OVC026 24/19 A3008 RMK AO2 SLP185 T02440189 53002
KILM 141434Z 27007KT 10SM SCT016 SCT022 BKN028 24/19 A3008 RMK AO2 T02390189
KILM 141353Z 00000KT 10SM SCT009 23/19 A3007 RMK AO2 SLP184 T02330194
KILM 141349Z 30003KT 10SM SCT009 23/19 A3007 RMK AO2
KILM 141301Z 25005KT 10SM BKN008 OVC019 22/19 A3008 RMK AO2 T02170194
KILM 141253Z 26004KT 10SM SCT007 OVC020 21/19 A3007 RMK AO2 SLP183 T02110189
KILM 141249Z 25005KT 10SM SCT007 SCT014 OVC020 21/19 A3007 RMK AO2
KILM 141240Z 26004KT 10SM SCT012 OVC018 21/19 A3006 RMK AO2 T02110189
KILM 141204Z 26006KT 10SM BKN010 21/19 A3005 RMK AO2 T02110194
KILM 141153Z 28007KT 10SM BKN008 21/19 A3005 RMK AO2 SLP175 60056 70104 T02110194 10211 20206 52009
KILM 141053Z 27005KT 10SM BKN008 OVC018 21/19 A3003 RMK AO2 SLP170 T02110194
KILM 141049Z 27004KT 10SM BKN009 OVC018 21/19 A3003 RMK AO2
KILM 141035Z 25003KT 10SM FEW009 BKN018 21/19 A3003 RMK AO2 T02110194
KILM 140953Z 21006KT 10SM FEW090 BKN110 21/19 A3002 RMK AO2 RAB0854E49 SLP165 P0008 T02110194
KILM 140853Z 22003KT 10SM BKN110 21/19 A3000 RMK AO2 LTG DSNT E-S RAE51 SLP157 P0008 60048 T02110194 55010
KILM 140753Z 22004KT 10SM -RA FEW021 SCT080 OVC100 21/19 A2999 RMK AO2 LTG DSNT E-SW SLP154 P0014 T02110194
KILM 140743Z 00000KT 10SM RA FEW021 BKN080 OVC110 21/19 A3000 RMK AO2 LTG DSNT E-SW P0011 T02060194
KILM 140731Z 22006KT 5SM RA BR SCT020 BKN027 OVC038 21/19 A3002 RMK AO2 LTG DSNT E-SW P0008 T02110194
KILM 140720Z 28004KT 10SM RA FEW018 BKN033 OVC048 21/19 A3001 RMK AO2 LTG DSNT E-SW P0001 T02110189
KILM 140653Z 31006KT 10SM -RA SCT009 BKN015 OVC049 21/19 A3000 RMK AO2 LTG DSNT ALQDS SLP158 P0026 T02110194
KILM 140634Z 01003KT 3SM R35/5000VP6000FT VCTS +RA BR FEW009 BKN017 OVC038 21/19 A3001 RMK AO2 LTG DSNT E AND SW AND W P0019 T02060194
KILM 140602Z 03004KT 10SM +RA BKN015 BKN020 OVC025 21/19 A3002 RMK AO2 LTG DSNT NE AND E P0000 T02060194
KILM 140553Z 35007KT 10SM VCTS -RA BKN013 BKN020 OVC060 21/19 A3002 RMK AO2 RAB30 SLP166 P0045 60048 T02060189 10250 20206 58005
KILM 140548Z 35012G19KT 4SM R35/4000VP6000FT VCTS -RA BR SCT010 BKN017 OVC028 21/19 A3003 RMK AO2 LTG DSNT W RAB30 P0045
KILM 140545Z 35016G19KT 3SM R35/4000VP6000FT +RA BR BKN012 BKN021 OVC060 21/19 A3003 RMK AO2 LTG DSNT W-N RAB30 P0038 T02060194
KILM 140538Z 35007KT 2 1/2SM R35/2800VP6000FT +RA BR BKN016 BKN025 OVC075 21/19 A3003 RMK AO2 LTG DSNT W-N RAB30 P0005 T02060194
KILM 140453Z 03005KT 10SM SCT026 BKN065 OVC080 23/21 A3002 RMK AO2 LTG DSNT W RAB13E36 SLP166 P0002 T02280211 403000161
KILM 140446Z 03005KT 10SM SCT023 BKN030 OVC075 23/21 A3003 RMK AO2 RAB13E36 P0002 T02280211
KILM 140432Z 00000KT 10SM -RA FEW018 BKN025 OVC070 23/21 A3003 RMK AO2 RAB13 P0002 T02330211
KILM 140353Z 00000KT 10SM FEW025 BKN050 OVC070 23/22 A3004 RMK AO2 LTG DSNT N RAE07 SLP173 P0000 T02330217
KILM 140253Z 21004KT 10SM -RA BKN075 OVC095 25/21 A3004 RMK AO2 RAB39 SLP171 LAST P0001 60001 T02500206 53006
KILM 140153Z 19008KT 10SM FEW080 OVC095 25/20 A3004 RMK AO2 SLP171 T02500200
KILM 140053Z 16006KT 10SM CLR 25/19 A3000 RMK AO2 SLP159 T02500189
KILM 132353Z 18007KT 10SM BKN060 25/19 A3002 RMK AO2 SLP165 T02500194 10294 20244 53001
KILM 132253Z 17007KT 10SM FEW060 25/19 A3002 RMK AO2 SLP165 T02500194
KILM 132153Z 17008KT 10SM CLR 26/18 A3001 RMK AO2 SLP161 T02610178
KILM 132053Z 21009KT 10SM CLR 28/16 A3002 RMK AO2 SLP164 T02780161 56006
KILM 131953Z 22006KT 10SM FEW050 FEW120 29/16 A3002 RMK AO2 SLP165 T02890161
KILM 131853Z 23007KT 10SM SCT048 28/16 A3002 RMK AO2 SLP164 T02830161
KILM 131753Z 23008KT 10SM BKN049 29/16 A3003 RMK AO2 SLP170 T02940161 10300 20178 58016
KILM 131653Z 25007G15KT 10SM BKN047 28/16 A3007 RMK AO2 SLP181 T02830161
KILM 131557Z 20008KT 10SM FEW039 28/17 A3007 RMK AO2 T02830172
KILM 131553Z 14007KT 120V180 10SM FEW039 28/17 A3007 RMK AO2 SLP183 T02780172
KILM 131453Z 19009KT 10SM FEW100 27/17 A3008 RMK AO2 SLP186 T02720172 50001
KILM 131353Z VRB03KT 10SM CLR 26/18 A3008 RMK AO2 SLP186 T02560178
KILM 131253Z 00000KT 10SM CLR 21/18 A3009 RMK AO2 SLP189 T02110178
KILM 131153Z 00000KT 10SM BKN110 18/16 A3008 RMK AO2 SLP184 T01780156 10183 20161 53014
KILM 131053Z 00000KT 10SM OVC110 17/16 A3006 RMK AO2 SLP179 T01720156
KILM 130953Z 00000KT 10SM FEW110 17/14 A3005 RMK AO2 SLP175 T01670144
KILM 130853Z 00000KT 10SM CLR 17/15 A3004 RMK AO2 SLP170 T01720150 53001
KILM 130753Z 00000KT 10SM CLR 18/16 A3003 RMK AO2 SLP167 T01780161
KILM 130653Z 00000KT 10SM CLR 18/16 A3003 RMK AO2 SLP167 T01780156
KILM 130553Z 00000KT 10SM CLR 18/15 A3003 RMK AO2 SLP169 T01780150 10228 20178 58003
KILM 130453Z 22003KT 10SM CLR 19/15 A3004 RMK AO2 SLP171 T01890150 403000117
KILM 130353Z 22003KT 10SM CLR 19/16 A3004 RMK AO2 SLP172 LAST T01940156
KILM 130253Z 00000KT 10SM CLR 20/15 A3004 RMK AO2 SLP172 T02000150 50006
KILM 130153Z 19004KT 10SM CLR 21/15 A3005 RMK AO2 SLP174 T02110150
KILM 130053Z 18003KT 10SM CLR 22/14 A3004 RMK AO2 SLP172 T02220144
KILM 122353Z 19005KT 10SM CLR 23/14 A3002 RMK AO2 SLP166 T02280144 10300 20228 53013
KILM 122253Z 20007KT 10SM CLR 24/14 A3000 RMK AO2 SLP159 T02440139